Time;durP1;ratioP1;P1;durP2;ratioP2;P2;SDS_P1;SDS_P2;PMS_P1;PMS_P2;Temp;Humidity;BMP_temperature;BMP_pressure;BME280_temperature;BME280_humidity;BME280_pressure;Samples;Min_cycle;Max_cycle;Signal;HPM_P1;HPM_P2
2021/12/09 00:01:21;;;;;;;22.05;8.93;;;;;;;14.89;23.25;97312.09;4986312;28;20041;-80
2021/12/09 00:03:48;;;;;;;31.05;12.20;;;;;;;12.67;25.60;97311.28;4982362;28;20577;-80
2021/12/09 00:06:17;;;;;;;23.83;11.40;;;;;;;13.09;24.96;97310.97;4975133;28;20042;-80
2021/12/09 00:08:43;;;;;;;23.58;11.13;;;;;;;13.50;24.30;97303.44;4990574;28;20030;-80
2021/12/09 00:11:10;;;;;;;22.00;10.63;;;;;;;13.07;25.17;97305.81;4994323;28;20038;-80
2021/12/09 00:13:36;;;;;;;28.65;12.77;;;;;;;12.43;26.21;97312.59;4991927;28;22255;-80
2021/12/09 00:16:03;;;;;;;21.80;9.52;;;;;;;13.00;25.42;97313.19;4994024;28;20049;-80
2021/12/09 00:18:29;;;;;;;27.50;11.75;;;;;;;12.33;26.31;97317.97;4991983;28;20074;-80
2021/12/09 00:20:55;;;;;;;22.02;10.18;;;;;;;13.44;24.83;97304.97;4989537;28;20494;-80
2021/12/09 00:23:21;;;;;;;21.67;10.43;;;;;;;14.05;24.12;97310.50;4987158;28;20030;-80
2021/12/09 00:25:47;;;;;;;22.98;9.98;;;;;;;14.56;23.39;97298.56;4983781;28;20049;-80
2021/12/09 00:28:13;;;;;;;20.15;8.80;;;;;;;15.40;22.07;97295.97;4981588;28;20072;-80
2021/12/09 00:30:40;;;;;;;21.92;9.90;;;;;;;13.16;24.70;97306.31;4991889;28;20032;-80
2021/12/09 00:33:08;;;;;;;22.35;9.82;;;;;;;14.41;23.60;97303.22;4991011;28;20037;-80
2021/12/09 00:35:44;;;;;;;25.30;9.80;;;;;;;13.65;23.83;97296.88;4982291;28;20045;-80
2021/12/09 00:38:18;;;;;;;19.92;9.50;;;;;;;12.21;26.81;97296.19;4989399;28;20036;-80
2021/12/09 00:40:44;;;;;;;23.83;10.50;;;;;;;13.40;24.79;97293.09;4988087;28;20108;-80
2021/12/09 00:43:10;;;;;;;26.25;10.88;;;;;;;14.32;23.73;97300.84;4988220;28;20034;-80
2021/12/09 00:45:37;;;;;;;23.38;10.05;;;;;;;13.62;24.51;97303.13;4989570;28;20041;-80
2021/12/09 00:48:03;;;;;;;25.23;10.77;;;;;;;15.66;22.05;97301.09;4991331;28;20133;-80
2021/12/09 00:50:30;;;;;;;19.38;9.93;;;;;;;15.80;21.70;97303.84;4989186;28;20535;-79
2021/12/09 00:52:56;;;;;;;25.80;10.23;;;;;;;14.67;22.81;97296.63;4989356;28;20034;-80
2021/12/09 00:55:22;;;;;;;20.98;9.15;;;;;;;14.00;23.71;97296.28;4989295;28;20401;-80
2021/12/09 00:57:48;;;;;;;19.88;9.55;;;;;;;14.75;23.27;97281.66;4989180;28;20482;-80
2021/12/09 01:00:17;;;;;;;20.73;9.43;;;;;;;15.61;21.86;97284.13;4991615;28;22028;-80
2021/12/09 01:02:43;;;;;;;24.75;10.02;;;;;;;14.21;23.25;97288.13;4987129;28;20034;-80
2021/12/09 01:05:10;;;;;;;21.67;10.93;;;;;;;15.09;22.78;97288.41;4987916;28;20417;-80
2021/12/09 01:07:38;;;;;;;18.10;9.32;;;;;;;13.30;24.65;97263.50;4986047;28;20097;-80
2021/12/09 01:10:07;;;;;;;25.15;11.57;;;;;;;11.98;26.40;97262.47;4985742;28;20034;-80
2021/12/09 01:12:33;;;;;;;25.10;11.07;;;;;;;14.23;23.72;97256.19;4991303;28;20101;-80
2021/12/09 01:15:00;;;;;;;21.70;10.40;;;;;;;13.91;23.93;97259.97;4988238;28;20070;-78
2021/12/09 01:17:26;;;;;;;22.83;10.60;;;;;;;15.37;22.12;97258.03;4989037;28;20030;-78
2021/12/09 01:19:53;;;;;;;18.48;9.02;;;;;;;14.75;22.75;97237.44;4988325;28;20034;-79
2021/12/09 01:22:20;;;;;;;21.67;9.48;;;;;;;13.56;24.15;97236.50;4987236;28;20043;-78
2021/12/09 01:24:46;;;;;;;24.40;10.00;;;;;;;13.87;24.01;97235.13;4982689;28;20034;-78
2021/12/09 01:27:13;;;;;;;19.13;9.25;;;;;;;14.75;23.03;97242.97;4988250;28;20084;-78
2021/12/09 01:29:42;;;;;;;21.77;10.18;;;;;;;14.11;23.18;97234.47;4991259;28;20498;-78
2021/12/09 01:32:12;;;;;;;24.88;10.18;;;;;;;14.46;22.90;97231.84;4990526;28;20431;-78
2021/12/09 01:34:38;;;;;;;18.67;9.45;;;;;;;14.10;23.29;97227.34;4986444;28;20022;-78
2021/12/09 01:37:05;;;;;;;27.35;11.45;;;;;;;13.01;24.49;97232.94;4985961;28;20046;-78
2021/12/09 01:39:33;;;;;;;21.17;11.35;;;;;;;12.81;24.77;97236.28;4984297;28;20034;-79
2021/12/09 01:41:59;;;;;;;18.45;8.18;;;;;;;13.62;23.88;97239.72;4985809;28;20446;-79
2021/12/09 01:44:26;;;;;;;22.30;10.15;;;;;;;14.24;22.87;97240.41;4985890;28;20118;-78
2021/12/09 01:46:54;;;;;;;23.90;10.98;;;;;;;14.47;22.30;97235.38;4983766;28;20486;-78
2021/12/09 01:49:20;;;;;;;19.80;9.35;;;;;;;14.88;22.10;97244.97;4989545;28;20054;-78
2021/12/09 01:51:47;;;;;;;20.35;10.10;;;;;;;15.86;20.90;97254.44;4990744;28;20423;-79
2021/12/09 01:54:15;;;;;;;24.00;10.75;;;;;;;16.38;20.41;97241.59;4984551;28;20036;-78
2021/12/09 01:56:42;;;;;;;22.80;9.93;;;;;;;15.12;21.77;97232.34;4983383;28;20110;-78
2021/12/09 01:59:08;;;;;;;18.67;8.60;;;;;;;15.20;21.57;97234.72;4989079;28;20034;-79
2021/12/09 02:01:36;;;;;;;20.40;9.25;;;;;;;16.44;20.33;97238.00;4989262;28;20108;-78
2021/12/09 02:04:06;;;;;;;17.35;9.25;;;;;;;17.15;19.63;97230.03;4991190;28;20042;-78
2021/12/09 02:06:34;;;;;;;29.75;12.55;;;;;;;16.37;20.32;97223.38;4988047;28;20031;-78
2021/12/09 02:09:00;;;;;;;22.60;10.88;;;;;;;16.24;20.53;97220.25;4990106;28;20022;-78
2021/12/09 02:11:26;;;;;;;23.10;10.45;;;;;;;16.68;19.99;97211.38;4990692;28;20601;-78
2021/12/09 02:13:56;;;;;;;25.15;10.68;;;;;;;14.94;22.11;97228.75;4982006;28;20036;-78
2021/12/09 02:16:23;;;;;;;23.30;10.68;;;;;;;14.53;22.14;97226.34;4989452;28;20034;-78
2021/12/09 02:18:49;;;;;;;25.58;11.70;;;;;;;13.59;23.95;97237.72;4989506;28;20149;-79
2021/12/09 02:21:19;;;;;;;21.27;9.35;;;;;;;13.00;24.68;97227.78;4988333;28;20038;-79
2021/12/09 02:23:52;;;;;;;23.98;11.13;;;;;;;13.60;24.39;97225.53;4985779;28;20049;-78
2021/12/09 02:26:22;;;;;;;26.05;11.25;;;;;;;12.97;24.94;97223.84;4986427;28;20031;-78
2021/12/09 02:28:50;;;;;;;20.38;8.98;;;;;;;13.35;24.42;97221.81;4985811;28;20034;-78
2021/12/09 02:31:17;;;;;;;22.60;10.50;;;;;;;12.48;25.52;97207.63;4988545;28;20043;-78
2021/12/09 02:33:43;;;;;;;23.42;10.70;;;;;;;11.84;26.77;97208.09;4989512;28;20038;-78
2021/12/09 02:36:09;;;;;;;25.88;11.07;;;;;;;14.56;22.96;97212.94;4988397;28;20034;-78
2021/12/09 02:38:42;;;;;;;24.98;11.35;;;;;;;14.77;22.56;97208.22;4990295;28;20057;-77
2021/12/09 02:41:14;;;;;;;25.75;11.50;;;;;;;12.98;24.53;97200.63;4986426;28;20038;-77
2021/12/09 02:43:41;;;;;;;23.42;10.50;;;;;;;13.52;24.01;97216.41;4987385;28;20058;-78
2021/12/09 02:46:07;;;;;;;26.33;11.27;;;;;;;15.67;21.74;97232.72;4986620;28;20031;-80
2021/12/09 02:48:34;;;;;;;21.45;9.82;;;;;;;15.70;21.35;97223.63;4989278;28;20675;-81
2021/12/09 02:51:04;;;;;;;22.38;9.80;;;;;;;16.65;20.36;97214.16;4988780;28;20042;-78
2021/12/09 02:53:30;;;;;;;23.02;10.45;;;;;;;16.96;20.19;97211.19;4972014;28;20022;-80
2021/12/09 02:55:56;;;;;;;24.92;11.15;;;;;;;17.18;19.45;97228.44;4987439;28;20403;-78
2021/12/09 02:58:23;;;;;;;21.80;9.85;;;;;;;18.45;18.39;97235.47;4989532;28;20042;-78
2021/12/09 03:01:11;;;;;;;24.33;10.13;;;;;;;19.13;17.75;97233.34;4991544;28;20030;-78
2021/12/09 03:03:45;;;;;;;27.70;10.45;;;;;;;18.61;18.28;97236.47;4992050;28;20034;-78
2021/12/09 03:06:12;;;;;;;19.17;9.13;;;;;;;15.84;21.11;97240.19;4990440;28;20074;-78
2021/12/09 03:08:40;;;;;;;19.80;9.05;;;;;;;16.21;20.70;97228.59;4980662;28;20027;-78
2021/12/09 03:11:13;;;;;;;19.20;9.55;;;;;;;15.94;21.24;97230.28;4981015;28;20043;-78
2021/12/09 03:13:41;;;;;;;15.50;8.75;;;;;;;14.92;22.51;97231.94;4989108;28;20114;-78
2021/12/09 03:16:07;;;;;;;18.33;9.18;;;;;;;15.61;21.73;97226.78;4986117;28;20152;-78
2021/12/09 03:18:46;;;;;;;21.98;9.68;;;;;;;13.56;24.38;97219.97;4988666;28;20050;-78
2021/12/09 03:21:17;;;;;;;16.33;7.80;;;;;;;14.61;22.85;97218.09;4985553;28;20039;-79
2021/12/09 03:23:44;;;;;;;17.65;9.00;;;;;;;14.04;23.68;97204.06;4988823;28;20038;-78
2021/12/09 03:26:10;;;;;;;19.95;9.65;;;;;;;13.67;23.96;97204.28;4985088;28;20043;-78
2021/12/09 03:28:36;;;;;;;24.88;11.18;;;;;;;12.46;25.90;97209.22;4986971;28;20034;-78
2021/12/09 03:31:03;;;;;;;19.52;9.80;;;;;;;11.82;26.70;97209.63;4988495;28;20035;-78
2021/12/09 03:33:29;;;;;;;21.48;10.90;;;;;;;11.90;26.47;97214.88;4988653;28;20034;-78
2021/12/09 03:36:01;;;;;;;25.65;12.38;;;;;;;12.75;25.81;97213.81;4988434;28;20557;-78
2021/12/09 03:38:28;;;;;;;18.58;8.88;;;;;;;13.64;24.51;97213.34;4988248;28;20030;-78
2021/12/09 03:40:55;;;;;;;21.55;10.77;;;;;;;15.05;22.61;97221.28;4991248;28;20085;-78
2021/12/09 03:43:21;;;;;;;23.85;10.40;;;;;;;17.03;20.21;97216.69;4991403;28;20046;-78
2021/12/09 03:45:48;;;;;;;21.15;9.98;;;;;;;15.79;20.81;97224.00;4992580;28;20077;-78
2021/12/09 03:48:15;;;;;;;23.95;11.27;;;;;;;15.24;21.95;97232.72;4990573;28;20118;-78
2021/12/09 03:50:41;;;;;;;21.25;10.20;;;;;;;15.30;22.25;97229.56;4987316;28;20105;-79
2021/12/09 03:53:07;;;;;;;20.55;9.93;;;;;;;17.39;20.10;97236.56;4985048;28;20046;-78
2021/12/09 03:55:33;;;;;;;24.75;10.88;;;;;;;17.70;19.17;97235.53;4987697;28;20038;-78
2021/12/09 03:57:59;;;;;;;25.45;9.90;;;;;;;18.34;18.53;97241.16;4987381;28;20042;-78
2021/12/09 04:00:28;;;;;;;20.67;9.85;;;;;;;18.93;18.07;97227.69;4987133;28;20069;-78
2021/12/09 04:02:54;;;;;;;19.35;8.55;;;;;;;19.27;17.67;97224.78;4986356;28;20030;-78
2021/12/09 04:05:20;;;;;;;20.60;10.55;;;;;;;18.79;18.01;97239.00;4993381;28;20034;-78
2021/12/09 04:07:46;;;;;;;24.77;10.07;;;;;;;19.29;17.53;97237.06;4989524;28;20482;-78
2021/12/09 04:10:13;;;;;;;18.92;8.85;;;;;;;17.58;19.15;97238.03;4987670;28;20034;-78
2021/12/09 04:12:39;;;;;;;16.73;8.73;;;;;;;17.11;19.65;97240.38;4987367;28;20058;-78
2021/12/09 04:15:06;;;;;;;18.52;8.52;;;;;;;16.02;20.93;97245.66;4991007;28;20549;-78
2021/12/09 04:17:33;;;;;;;17.42;8.13;;;;;;;15.83;21.10;97241.38;4989928;28;20034;-78
2021/12/09 04:19:59;;;;;;;19.40;9.48;;;;;;;16.67;20.53;97231.16;4989738;28;20077;-78
2021/12/09 04:22:25;;;;;;;21.45;9.38;;;;;;;17.21;19.62;97228.41;4987171;28;20038;-78
2021/12/09 04:24:53;;;;;;;15.88;8.23;;;;;;;16.29;20.63;97224.63;4990321;28;20398;-78
2021/12/09 04:27:19;;;;;;;17.55;8.45;;;;;;;14.70;22.44;97221.25;4991344;28;20080;-78
2021/12/09 04:29:46;;;;;;;21.77;9.85;;;;;;;16.04;21.48;97226.69;4990652;28;20034;-78
2021/12/09 04:32:12;;;;;;;20.02;9.85;;;;;;;16.87;20.32;97224.72;4990984;28;20498;-79
2021/12/09 04:34:40;;;;;;;18.73;8.88;;;;;;;17.59;19.33;97231.28;4990376;28;20037;-78
2021/12/09 04:37:06;;;;;;;17.83;7.93;;;;;;;17.42;19.36;97221.09;4984313;28;20037;-78
2021/12/09 04:39:33;;;;;;;14.32;7.25;;;;;;;16.13;20.97;97218.72;4991293;28;20363;-79
2021/12/09 04:41:59;;;;;;;16.23;8.23;;;;;;;15.15;22.02;97215.75;4990572;28;20513;-78
2021/12/09 04:44:25;;;;;;;16.95;8.80;;;;;;;15.25;22.32;97214.16;4990901;28;20452;-78
2021/12/09 04:46:51;;;;;;;16.23;8.15;;;;;;;16.62;20.71;97217.75;4993602;28;20034;-78
2021/12/09 04:49:17;;;;;;;18.33;8.70;;;;;;;17.89;19.09;97221.06;4976340;28;20084;-79
2021/12/09 04:51:43;;;;;;;18.48;8.50;;;;;;;18.31;18.52;97222.56;4991748;28;20105;-78
2021/12/09 04:54:10;;;;;;;18.95;9.18;;;;;;;16.75;19.92;97222.41;4987928;28;20042;-78
2021/12/09 04:56:37;;;;;;;15.23;7.63;;;;;;;16.88;19.98;97215.19;4991625;28;20042;-78
2021/12/09 04:59:03;;;;;;;18.27;8.90;;;;;;;15.83;20.94;97210.94;4992803;28;20042;-78
2021/12/09 05:01:30;;;;;;;17.88;8.43;;;;;;;15.37;21.76;97205.47;4991911;28;20097;-78
2021/12/09 05:03:56;;;;;;;17.45;8.32;;;;;;;14.53;22.73;97206.22;4970899;28;20132;-78
2021/12/09 05:06:22;;;;;;;17.10;8.73;;;;;;;14.51;23.00;97190.06;4987525;28;20034;-78
2021/12/09 05:08:49;;;;;;;20.40;10.02;;;;;;;14.89;22.47;97187.72;4989942;28;20037;-78
2021/12/09 05:11:32;;;;;;;22.38;9.77;;;;;;;14.67;22.52;97177.81;4988624;28;20530;-78
2021/12/09 05:13:59;;;;;;;22.85;10.48;;;;;;;16.27;20.93;97190.97;4987362;28;20081;-78
2021/12/09 05:16:26;;;;;;;22.48;10.38;;;;;;;16.92;20.17;97193.75;4988505;28;20121;-79
2021/12/09 05:18:58;;;;;;;17.90;8.93;;;;;;;17.00;19.87;97189.75;4990569;28;20034;-78
2021/12/09 05:21:34;;;;;;;22.77;11.15;;;;;;;13.09;24.36;97181.47;4989851;28;20106;-78
2021/12/09 05:24:00;;;;;;;23.80;11.75;;;;;;;12.09;26.22;97170.66;4986596;28;20038;-78
2021/12/09 05:26:32;;;;;;;19.90;9.73;;;;;;;12.59;25.75;97160.16;4985010;28;20034;-78
2021/12/09 05:28:58;;;;;;;29.73;13.77;;;;;;;12.44;25.45;97182.03;4983616;28;20125;-79
2021/12/09 05:34:11;;;;;;;22.23;10.32;;;;;;;18.26;18.76;97202.78;4988864;28;20576;-79
2021/12/09 05:36:38;;;;;;;26.70;11.30;;;;;;;19.08;17.67;97206.78;4987947;28;20486;-79
2021/12/09 05:39:07;;;;;;;30.77;12.13;;;;;;;19.04;17.69;97214.38;4985535;28;20088;-79
2021/12/09 05:41:33;;;;;;;19.63;9.35;;;;;;;17.61;18.90;97203.91;4984305;28;20031;-81
2021/12/09 05:44:04;;;;;;;24.80;10.80;;;;;;;15.12;21.68;97188.13;4983802;28;20487;-78
2021/12/09 05:46:32;;;;;;;;;;;;;;;14.35;22.82;97192.34;4990372;28;20062;-78
2021/12/09 05:48:58;;;;;;;17.92;9.25;;;;;;;15.68;21.45;97190.81;4986959;28;20023;-78
2021/12/09 05:51:25;;;;;;;23.00;10.80;;;;;;;16.20;20.78;97191.81;4989052;28;20086;-78
2021/12/09 05:53:52;;;;;;;23.77;11.20;;;;;;;15.96;20.96;97191.91;4988184;28;20080;-78
2021/12/09 05:56:18;;;;;;;23.50;11.43;;;;;;;15.75;21.27;97192.78;4989519;28;20398;-78
2021/12/09 05:58:45;;;;;;;27.52;11.40;;;;;;;13.68;23.98;97189.31;4981643;28;20406;-79
2021/12/09 06:01:11;;;;;;;23.35;11.52;;;;;;;12.23;25.84;97198.34;4988567;28;20041;-79
2021/12/09 06:03:37;;;;;;;25.88;12.02;;;;;;;13.72;24.40;97201.16;4992484;28;20078;-79
2021/12/09 06:06:03;;;;;;;43.67;13.43;;;;;;;13.49;24.28;97197.88;4984215;28;20081;-79
2021/12/09 06:08:30;;;;;;;24.85;11.75;;;;;;;12.80;25.16;97209.91;4989209;28;20031;-79
2021/12/09 06:10:56;;;;;;;27.38;10.68;;;;;;;14.69;22.66;97219.66;4985602;28;20116;-79
2021/12/09 06:13:25;;;;;;;23.30;11.02;;;;;;;13.21;24.82;97216.19;4986275;28;20041;-78
2021/12/09 06:15:51;;;;;;;24.08;11.20;;;;;;;13.57;24.54;97216.03;4989768;28;20050;-79
2021/12/09 06:18:17;;;;;;;23.98;10.85;;;;;;;15.75;21.79;97234.28;4981919;28;20116;-78
2021/12/09 06:20:43;;;;;;;24.30;10.65;;;;;;;17.12;20.05;97243.94;4989301;28;20027;-79
2021/12/09 06:23:09;;;;;;;25.70;12.27;;;;;;;17.98;19.15;97241.97;4972154;28;20030;-78
2021/12/09 06:25:36;;;;;;;26.05;11.23;;;;;;;18.03;19.23;97250.66;4987701;28;20041;-78
2021/12/09 06:28:02;;;;;;;23.92;10.68;;;;;;;18.31;18.80;97263.44;4990179;28;20029;-80
2021/12/09 06:30:28;;;;;;;22.65;11.05;;;;;;;17.24;19.51;97263.66;4986624;28;20027;-80
2021/12/09 06:32:54;;;;;;;20.83;10.52;;;;;;;15.86;21.35;97251.66;4989851;28;20026;-80
2021/12/09 06:35:21;;;;;;;20.95;10.57;;;;;;;16.33;21.02;97242.81;4993604;28;20026;-81
2021/12/09 06:37:48;;;;;;;26.23;11.82;;;;;;;17.38;19.88;97248.09;4990315;28;20394;-81
2021/12/09 06:40:18;;;;;;;24.23;11.52;;;;;;;18.13;18.96;97263.66;4991773;28;20034;-80
2021/12/09 06:42:45;;;;;;;23.23;11.30;;;;;;;17.95;18.82;97257.47;4988878;28;20034;-80
2021/12/09 06:45:13;;;;;;;27.38;11.73;;;;;;;16.29;20.85;97261.41;4990747;28;20061;-80
2021/12/09 06:47:39;;;;;;;29.27;12.98;;;;;;;16.95;20.25;97255.94;4992636;28;20129;-80
2021/12/09 06:50:07;;;;;;;23.45;9.88;;;;;;;17.88;19.49;97249.22;4990569;28;20058;-80
2021/12/09 06:52:34;;;;;;;22.02;10.07;;;;;;;17.97;19.15;97246.75;4989724;28;20486;-80
2021/12/09 06:55:00;;;;;;;26.23;12.18;;;;;;;17.20;19.87;97240.69;4986222;28;20117;-80
2021/12/09 06:57:26;;;;;;;29.80;12.38;;;;;;;15.59;21.58;97240.22;4992445;28;20034;-80
2021/12/09 06:59:52;;;;;;;24.17;10.57;;;;;;;14.91;22.77;97251.69;4990521;28;20042;-80
2021/12/09 07:02:18;;;;;;;25.58;12.55;;;;;;;14.90;23.21;97263.91;4991201;28;20118;-80
2021/12/09 07:04:44;;;;;;;25.55;11.35;;;;;;;16.52;21.02;97260.94;4990936;28;20149;-80
2021/12/09 07:07:10;;;;;;;28.35;12.43;;;;;;;17.96;19.62;97261.84;4990669;28;20043;-81
2021/12/09 07:09:38;;;;;;;23.65;11.20;;;;;;;19.25;18.24;97255.03;4975868;28;20033;-80
2021/12/09 07:12:04;;;;;;;28.70;12.25;;;;;;;20.30;17.39;97257.19;4993397;28;20088;-80
2021/12/09 07:14:30;;;;;;;29.63;12.30;;;;;;;19.64;17.63;97263.56;4990995;28;20403;-80
2021/12/09 07:16:56;;;;;;;26.02;11.93;;;;;;;20.21;17.10;97268.09;4991240;28;20140;-81
2021/12/09 07:19:22;;;;;;;25.38;10.35;;;;;;;20.43;16.80;97261.69;4991945;28;20049;-80
2021/12/09 07:21:48;;;;;;;25.38;11.98;;;;;;;19.86;17.22;97258.41;4993404;28;20035;-80
2021/12/09 07:24:15;;;;;;;24.50;11.27;;;;;;;18.61;18.85;97255.94;4976094;28;20129;-81
2021/12/09 07:26:41;;;;;;;26.75;11.48;;;;;;;18.51;18.72;97250.50;4992880;28;20065;-80
2021/12/09 07:29:07;;;;;;;26.08;10.68;;;;;;;19.41;18.21;97262.75;4993316;28;20430;-80
2021/12/09 07:31:33;;;;;;;25.10;12.15;;;;;;;17.26;20.08;97246.59;4992509;28;20040;-80
2021/12/09 07:34:00;;;;;;;31.92;14.68;;;;;;;15.67;21.99;97247.34;4993126;28;20030;-81
2021/12/09 07:36:27;;;;;;;29.08;13.23;;;;;;;14.76;23.44;97239.00;4989891;28;20026;-80
2021/12/09 07:38:53;;;;;;;31.08;13.10;;;;;;;15.38;22.83;97250.53;4989576;28;20038;-80
2021/12/09 07:41:21;;;;;;;29.52;12.45;;;;;;;16.62;21.39;97239.94;4989399;28;20040;-80
2021/12/09 07:43:49;;;;;;;29.05;12.52;;;;;;;17.85;19.91;97247.28;4982001;28;20082;-80
2021/12/09 07:46:16;;;;;;;34.03;15.15;;;;;;;16.79;20.67;97244.56;4989464;28;20117;-80
2021/12/09 07:48:42;;;;;;;32.70;13.38;;;;;;;16.30;21.56;97234.50;4990089;28;20046;-81
2021/12/09 07:51:08;;;;;;;26.60;12.13;;;;;;;16.02;22.03;97234.59;4992824;28;20054;-80
2021/12/09 07:53:35;;;;;;;26.90;12.23;;;;;;;17.31;20.70;97232.31;4993147;28;20033;-80
2021/12/09 07:56:01;;;;;;;26.25;12.48;;;;;;;16.95;20.91;97231.78;4992571;28;20471;-80
2021/12/09 07:58:28;;;;;;;28.45;12.13;;;;;;;16.92;21.01;97242.91;4993264;28;20033;-80
2021/12/09 08:00:54;;;;;;;26.80;13.32;;;;;;;17.79;20.02;97251.69;4991391;28;20098;-80
2021/12/09 08:03:20;;;;;;;24.77;10.43;;;;;;;18.84;19.09;97255.22;4992122;28;20038;-80
2021/12/09 08:05:47;;;;;;;29.95;12.88;;;;;;;17.84;19.73;97254.81;4992097;28;20037;-80
2021/12/09 08:08:14;;;;;;;32.60;15.07;;;;;;;14.89;23.35;97249.28;4992902;28;20039;-80
2021/12/09 08:10:40;;;;;;;30.73;15.35;;;;;;;14.11;24.83;97248.25;4992108;28;20418;-80
2021/12/09 08:13:08;;;;;;;33.42;14.13;;;;;;;15.48;23.10;97250.53;4985900;28;20042;-80
2021/12/09 08:15:38;;;;;;;31.90;14.80;;;;;;;17.87;20.48;97258.78;4992122;28;20038;-80
2021/12/09 08:18:25;;;;;;;29.55;13.48;;;;;;;17.52;20.46;97257.13;4992950;28;20118;-81
2021/12/09 08:21:00;;;;;;;26.90;13.68;;;;;;;16.10;21.65;97258.31;4992337;28;20038;-80
2021/12/09 08:23:26;;;;;;;33.97;14.85;;;;;;;16.40;21.82;97256.63;4992506;28;20046;-80
2021/12/09 08:25:54;;;;;;;32.22;15.38;;;;;;;17.87;20.02;97258.78;4994385;28;20404;-80
2021/12/09 08:28:20;;;;;;;31.73;15.45;;;;;;;17.91;19.86;97262.28;4997071;28;20034;-80
2021/12/09 08:30:50;;;;;;;30.27;14.23;;;;;;;15.91;22.38;97256.78;4996000;28;20036;-81
2021/12/09 08:33:18;;;;;;;28.80;13.55;;;;;;;16.86;21.41;97250.84;4997489;28;20041;-80
2021/12/09 08:35:44;;;;;;;27.92;14.57;;;;;;;15.37;23.11;97249.72;4994272;28;20022;-81
2021/12/09 08:38:10;;;;;;;28.13;14.07;;;;;;;15.87;22.91;97245.72;4995679;28;20073;-81
2021/12/09 08:40:37;;;;;;;29.33;14.80;;;;;;;16.37;21.78;97234.47;4995038;28;20038;-80
2021/12/09 08:43:04;;;;;;;28.33;14.02;;;;;;;16.50;22.00;97219.75;4986820;28;20044;-80
2021/12/09 08:45:30;;;;;;;34.58;16.02;;;;;;;15.25;23.37;97230.75;4993738;28;20121;-80
2021/12/09 08:47:56;;;;;;;25.85;13.98;;;;;;;15.21;23.29;97241.03;4994711;28;20037;-80
2021/12/09 08:50:25;;;;;;;27.25;13.68;;;;;;;16.81;21.77;97236.63;4995472;28;20046;-80
2021/12/09 08:52:53;;;;;;;37.25;17.23;;;;;;;16.18;22.17;97246.00;4959545;28;20038;-80
2021/12/09 08:55:21;;;;;;;30.13;15.07;;;;;;;17.18;21.44;97243.09;4996148;28;20096;-80
2021/12/09 08:57:48;;;;;;;38.00;18.17;;;;;;;14.76;23.74;97250.06;4994177;28;20089;-81
2021/12/09 09:00:16;;;;;;;31.15;15.27;;;;;;;14.62;24.55;97269.38;4996410;28;20076;-81
2021/12/09 09:02:44;;;;;;;36.45;18.17;;;;;;;15.27;23.42;97275.38;4995260;28;20553;-80
2021/12/09 09:05:13;;;;;;;29.10;14.55;;;;;;;17.15;21.66;97271.63;4995045;28;20092;-80
2021/12/09 09:07:44;;;;;;;31.48;16.35;;;;;;;15.28;23.37;97262.34;4992099;28;20101;-81
2021/12/09 09:10:11;;;;;;;29.90;14.40;;;;;;;15.33;24.03;97257.22;4993147;28;20033;-81
2021/12/09 09:12:38;;;;;;;36.15;17.42;;;;;;;14.25;24.86;97229.00;4994854;28;20038;-81
2021/12/09 09:15:07;;;;;;;33.60;16.55;;;;;;;14.15;25.26;97207.66;4995155;28;20034;-81
2021/12/09 09:17:33;;;;;;;32.88;16.35;;;;;;;16.43;22.41;97219.78;4996124;28;20030;-81
2021/12/09 09:19:59;;;;;;;32.67;16.90;;;;;;;17.03;21.41;97213.91;4994602;28;20093;-81
2021/12/09 09:22:25;;;;;;;31.33;15.85;;;;;;;17.26;21.47;97202.22;4978538;28;20383;-81
2021/12/09 09:24:51;;;;;;;32.30;15.98;;;;;;;17.52;20.88;97189.72;4993531;28;20039;-81
2021/12/09 09:27:17;;;;;;;34.33;16.10;;;;;;;15.34;23.14;97194.41;4996081;28;20505;-81
2021/12/09 09:29:44;;;;;;;32.72;16.40;;;;;;;14.87;24.32;97192.84;4993534;28;20033;-81
2021/12/09 09:32:13;;;;;;;33.33;16.25;;;;;;;15.81;23.29;97200.28;4993621;28;20042;-81
2021/12/09 09:34:40;;;;;;;26.30;14.40;;;;;;;17.57;21.11;97203.16;4981000;28;20050;-81
2021/12/09 09:37:07;;;;;;;29.95;13.88;;;;;;;18.90;19.54;97202.72;4991432;28;20034;-82
2021/12/09 09:39:33;;;;;;;26.67;14.77;;;;;;;18.13;20.33;97176.75;4994072;28;20038;-81
2021/12/09 09:44:48;;;;;;;27.65;13.18;;;;;;;18.73;19.87;97178.72;4993045;28;20073;-81
2021/12/09 09:47:16;;;;;;;29.25;14.63;;;;;;;20.44;18.15;97192.78;4994431;28;20062;-81
2021/12/09 09:49:43;;;;;;;25.48;13.70;;;;;;;21.06;17.58;97189.00;4995184;28;20058;-81
2021/12/09 09:52:10;;;;;;;36.30;16.42;;;;;;;18.61;19.40;97194.78;4993435;28;20089;-81
2021/12/09 09:54:37;;;;;;;26.85;13.85;;;;;;;18.72;19.61;97191.06;4994122;28;20057;-81
2021/12/09 09:57:05;;;;;;;25.35;13.77;;;;;;;17.40;20.83;97185.44;4994975;28;20057;-81
2021/12/09 09:59:31;;;;;;;31.85;15.02;;;;;;;16.11;22.90;97176.81;4994881;28;20056;-81
2021/12/09 10:01:58;;;;;;;29.27;14.40;;;;;;;16.70;22.20;97174.94;4988972;28;20088;-81
2021/12/09 10:04:44;;;;;;;30.10;15.10;;;;;;;17.00;21.63;97173.13;4993935;28;20042;-81
2021/12/09 10:07:12;;;;;;;26.33;13.07;;;;;;;18.11;20.70;97184.72;4990563;28;20038;-81
2021/12/09 10:09:39;;;;;;;28.17;13.68;;;;;;;18.35;20.55;97169.69;4991914;28;20031;-81
2021/12/09 10:12:06;;;;;;;27.65;14.30;;;;;;;16.47;22.13;97156.06;4993565;28;20046;-81
2021/12/09 10:14:34;;;;;;;30.15;13.90;;;;;;;14.47;24.96;97141.50;4992449;28;20061;-81
2021/12/09 10:17:22;;;;;;;30.23;16.20;;;;;;;15.34;24.10;97150.16;4976546;28;20438;-81
2021/12/09 10:19:55;;;;;;;31.17;15.40;;;;;;;15.40;23.88;97154.09;4992584;28;20513;-81
2021/12/09 10:22:24;;;;;;;32.22;16.08;;;;;;;14.40;25.44;97147.00;4995036;28;20034;-81
2021/12/09 10:24:53;;;;;;;33.38;17.17;;;;;;;14.95;24.67;97155.72;4993276;28;20038;-81
2021/12/09 10:27:28;;;;;;;28.45;14.73;;;;;;;16.80;22.74;97149.94;4991977;28;20038;-82
2021/12/09 10:30:00;;;;;;;31.10;15.90;;;;;;;16.65;22.83;97142.09;4993808;28;20066;-81
2021/12/09 10:32:31;;;;;;;32.83;17.88;;;;;;;16.29;22.97;97138.75;4990889;28;20101;-81
2021/12/09 10:35:24;;;;;;;;;;;;;;;15.00;24.50;97147.84;4990782;28;20045;-81
2021/12/09 10:37:51;;;;;;;27.20;14.10;;;;;;;17.47;21.94;97152.09;4990312;28;19918;-81
2021/12/09 10:40:22;;;;;;;31.58;14.98;;;;;;;19.33;19.77;97151.50;4993654;28;20034;-81
2021/12/09 10:42:55;;;;;;;32.42;16.27;;;;;;;16.98;22.23;97133.13;4992661;28;20038;-81
2021/12/09 10:45:31;;;;;;;28.38;13.85;;;;;;;17.88;21.38;97121.50;4992883;28;20034;-81
2021/12/09 10:48:03;;;;;;;34.95;17.15;;;;;;;16.61;22.80;97130.25;4993844;28;20026;-82
2021/12/09 10:50:42;;;;;;;35.95;17.95;;;;;;;15.27;24.45;97128.84;4975606;28;20046;-81
2021/12/09 10:55:46;;;;;;;31.85;15.95;;;;;;;14.22;26.24;97111.06;4991573;28;20038;-81
2021/12/09 10:58:14;;;;;;;35.10;18.13;;;;;;;15.25;25.32;97117.41;4994015;28;20034;-81
2021/12/09 11:00:46;;;;;;;32.38;16.50;;;;;;;15.01;25.43;97120.97;4992416;28;20541;-81
2021/12/09 11:03:33;;;;;;;29.83;15.23;;;;;;;15.70;25.00;97107.41;4993537;28;20037;-81
2021/12/09 11:06:13;;;;;;;30.08;16.10;;;;;;;16.64;23.76;97110.06;4992439;28;20134;-81
2021/12/09 11:08:46;;;;;;;33.53;18.20;;;;;;;16.76;23.10;97112.31;4993353;28;20037;-81
2021/12/09 11:11:30;;;;;;;27.45;14.82;;;;;;;16.99;23.01;97110.53;4993372;28;20030;-81
2021/12/09 11:14:14;;;;;;;32.72;18.25;;;;;;;17.08;22.56;97105.28;4991773;28;20046;-81
2021/12/09 11:16:50;;;;;;;32.78;16.88;;;;;;;15.92;24.22;97108.13;4986605;28;20069;-81
2021/12/09 11:22:05;;;;;;;33.55;18.30;;;;;;;15.31;25.20;97109.50;4994345;28;20042;-81
2021/12/09 11:24:42;;;;;;;30.90;17.77;;;;;;;15.77;24.79;97097.09;4990739;28;20045;-81
2021/12/09 11:27:11;;;;;;;32.03;17.90;;;;;;;15.84;24.43;97112.88;4993178;28;20516;-81
2021/12/09 11:29:43;;;;;;;35.38;18.42;;;;;;;14.92;25.79;97110.34;4992386;28;20080;-81
2021/12/09 11:32:17;;;;;;;27.35;15.43;;;;;;;15.42;25.58;97097.22;4977651;28;20108;-81
2021/12/09 11:35:10;;;;;;;35.85;19.00;;;;;;;14.67;25.92;97094.94;4990283;28;20521;-81